| time (UTC) | temp C | wind direction | speed KPH | gust KPH | rain 1hr cm | rain 24hr cm | rain mn cm | humidity % | barometer mb |
| 20260504211045 | 25 | 190 | 6.4 | 14.5 | 0.00 | 0.00 | 0.00 | 32 | 1013.6 |
| 20260504210543 | 25 | 224 | 6.4 | 17.7 | 0.00 | 0.00 | 0.00 | 29 | 1013.6 |
| 20260504210048 | 25 | 236 | 4.8 | 19.3 | 0.00 | 0.00 | 0.00 | 30 | 1013.6 |
| 20260504205543 | 25 | 214 | 6.4 | 19.3 | 0.00 | 0.00 | 0.00 | 29 | 1013.6 |
| 20260504205044 | 26 | 205 | 3.2 | 16.1 | 0.00 | 0.00 | 0.00 | 29 | 1013.7 |
| 20260504204558 | 26 | 164 | 1.6 | 14.5 | 0.00 | 0.00 | 0.00 | 29 | 1013.7 |
| 20260504204044 | 26 | 0 | 1.6 | 8.0 | 0.00 | 0.00 | 0.00 | 30 | 1013.8 |
| 20260504203543 | 26 | 214 | 3.2 | 9.7 | 0.00 | 0.00 | 0.00 | 30 | 1014.0 |
| 20260504203101 | 26 | 254 | 3.2 | 9.7 | 0.00 | 0.00 | 0.00 | 31 | 1013.9 |
| 20260504202543 | 26 | 103 | 1.6 | 11.3 | 0.00 | 0.00 | 0.00 | 29 | 1014.0 |
| 20260504202046 | 26 | 17 | 4.8 | 11.3 | 0.00 | 0.00 | 0.00 | 31 | 1014.1 |
| 20260504201552 | 26 | 161 | 1.6 | 9.7 | 0.00 | 0.00 | 0.00 | 29 | 1014.1 |
| 20260504201044 | 26 | 0 | 3.2 | 14.5 | 0.00 | 0.00 | 0.00 | 27 | 1014.0 |
| 20260504200543 | 25 | 159 | 3.2 | 14.5 | 0.00 | 0.00 | 0.00 | 28 | 1014.1 |
| 20260504200100 | 25 | 175 | 4.8 | 12.9 | 0.00 | 0.00 | 0.00 | 28 | 1014.2 |
| 20260504195544 | 26 | 310 | 3.2 | 11.3 | 0.00 | 0.00 | 0.00 | 27 | 1014.2 |
| 20260504195043 | 25 | 0 | 3.2 | 16.1 | 0.00 | 0.00 | 0.00 | 27 | 1014.3 |
| 20260504194601 | 25 | 216 | 3.2 | 17.7 | 0.00 | 0.00 | 0.00 | 28 | 1014.4 |
| 20260504194044 | 25 | 211 | 4.8 | 19.3 | 0.00 | 0.00 | 0.00 | 27 | 1014.5 |
| 20260504193544 | 25 | 200 | 6.4 | 19.3 | 0.00 | 0.00 | 0.00 | 29 | 1014.5 |
| 20260504193048 | 25 | 261 | 1.6 | 16.1 | 0.00 | 0.00 | 0.00 | 30 | 1014.5 |
| 20260504192544 | 25 | 195 | 6.4 | 16.1 | 0.00 | 0.00 | 0.00 | 29 | 1014.6 |
| 20260504192043 | 25 | 214 | 3.2 | 16.1 | 0.00 | 0.00 | 0.00 | 30 | 1014.8 |
| 20260504191607 | 25 | 232 | 3.2 | 11.3 | 0.00 | 0.00 | 0.00 | 32 | 1014.9 |
| 20260504191044 | 25 | 228 | 4.8 | 14.5 | 0.00 | 0.00 | 0.00 | 31 | 1015.0 |
| 20260504190547 | 25 | 221 | 3.2 | 14.5 | 0.00 | 0.00 | 0.00 | 33 | 1015.1 |
| 20260504190053 | 25 | 306 | 1.6 | 9.7 | 0.00 | 0.00 | 0.00 | 32 | 1015.1 |
| 20260504185543 | 25 | 124 | 1.6 | 9.7 | 0.00 | 0.00 | 0.00 | 31 | 1015.2 |
| 20260504185044 | 25 | 176 | 1.6 | 8.0 | 0.00 | 0.00 | 0.00 | 31 | 1015.2 |
| 20260504184553 | 24 | 142 | 1.6 | 8.0 | 0.00 | 0.00 | 0.00 | 33 | 1015.2 |
| 20260504184043 | 25 | 348 | 3.2 | 11.3 | 0.00 | 0.00 | 0.00 | 31 | 1015.3 |
| 20260504183544 | 24 | 111 | 1.6 | 14.5 | 0.00 | 0.00 | 0.00 | 32 | 1015.3 |
| 20260504183052 | 24 | 192 | 4.8 | 14.5 | 0.00 | 0.00 | 0.00 | 31 | 1015.5 |
| 20260504182542 | 25 | 0 | 3.2 | 9.7 | 0.00 | 0.00 | 0.00 | 35 | 1015.4 |
| 20260504182042 | 24 | 159 | 3.2 | 17.7 | 0.00 | 0.00 | 0.00 | 33 | 1015.5 |
| 20260504181557 | 25 | 342 | 3.2 | 17.7 | 0.00 | 0.00 | 0.00 | 30 | 1015.5 |
| 20260504181042 | 24 | 321 | 6.4 | 12.9 | 0.00 | 0.00 | 0.00 | 33 | 1015.5 |
| 20260504180543 | 24 | 198 | 1.6 | 12.9 | 0.00 | 0.00 | 0.00 | 32 | 1015.4 |
| 20260504180054 | 24 | 217 | 3.2 | 12.9 | 0.00 | 0.00 | 0.00 | 36 | 1015.4 |
| 20260504175543 | 24 | 184 | 4.8 | 17.7 | 0.00 | 0.00 | 0.00 | 32 | 1015.4 |
| 20260504175040 | 23 | 38 | 3.2 | 19.3 | 0.00 | 0.00 | 0.00 | 36 | 1015.4 |
| 20260504174553 | 23 | 209 | 8.0 | 19.3 | 0.00 | 0.00 | 0.00 | 32 | 1015.6 |
| 20260504174043 | 24 | 329 | 3.2 | 8.0 | 0.00 | 0.00 | 0.00 | 31 | 1015.6 |
| 20260504173543 | 24 | 311 | 1.6 | 6.4 | 0.00 | 0.00 | 0.00 | 38 | 1015.6 |
| 20260504173049 | 24 | 263 | 3.2 | 9.7 | 0.00 | 0.00 | 0.00 | 34 | 1015.6 |
| 20260504172545 | 23 | 0 | 3.2 | 9.7 | 0.00 | 0.00 | 0.00 | 34 | 1015.8 |
| 20260504172045 | 23 | 155 | 0.0 | 16.1 | 0.00 | 0.00 | 0.00 | 35 | 1016.0 |
| 20260504171552 | 22 | 209 | 6.4 | 16.1 | 0.00 | 0.00 | 0.00 | 32 | 1015.9 |
| 20260504171044 | 23 | 208 | 4.8 | 16.1 | 0.00 | 0.00 | 0.00 | 34 | 1015.9 |
| 20260504170544 | 23 | 237 | 4.8 | 14.5 | 0.00 | 0.00 | 0.00 | 32 | 1016.0 |
| 20260504151044 | 21 | 232 | 3.2 | 8.0 | 0.00 | 0.00 | 0.00 | 40 | 1017.5 |
| 20260504150543 | 20 | 149 | 1.6 | 8.0 | 0.00 | 0.00 | 0.00 | 43 | 1017.5 |
| 20260504141040 | 17 | 157 | 0.0 | 4.8 | 0.00 | 0.00 | 0.00 | 51 | 1017.5 |
| 20260504140544 | 17 | 240 | 1.6 | 6.4 | 0.00 | 0.00 | 0.00 | 50 | 1017.4 |
| 20260504130540 | 13 | 174 | 1.6 | 4.8 | 0.00 | 0.00 | 0.00 | 68 | 1017.5 |
| 20260504110542 | 5 | 0 | 0.0 | 0.0 | 0.00 | 0.00 | 0.00 | 91 | 1017.3 |
| 20260504100545 | 5 | 0 | 0.0 | 0.0 | 0.00 | 0.00 | 0.00 | 90 | 1016.8 |
| 20260504090105 | 6 | 0 | 0.0 | 0.0 | 0.00 | 0.00 | 0.00 | 86 | 1017.1 |
| 20260504081554 | 7 | 0 | 0.0 | 0.0 | 0.00 | 0.00 | 0.00 | 81 | 1016.9 |
| 20260504081042 | 7 | 0 | 0.0 | 0.0 | 0.00 | 0.00 | 0.00 | 81 | 1016.8 |
| 20260504080542 | 7 | 0 | 0.0 | 0.0 | 0.00 | 0.00 | 0.00 | 81 | 1016.8 |
| 20260504050545 | 11 | 205 | 1.6 | 8.0 | 0.00 | 0.00 | 0.00 | 65 | 1016.9 |
| 20260504045546 | 11 | 231 | 3.2 | 11.3 | 0.00 | 0.00 | 0.00 | 65 | 1016.8 |
| 20260504045044 | 11 | 0 | 1.6 | 8.0 | 0.00 | 0.00 | 0.00 | 65 | 1016.9 |
| 20260504044609 | 11 | 195 | 3.2 | 9.7 | 0.00 | 0.00 | 0.00 | 66 | 1016.8 |
| 20260504044042 | 11 | 192 | 3.2 | 11.3 | 0.00 | 0.00 | 0.00 | 67 | 1016.8 |
| 20260504043545 | 11 | 0 | 1.6 | 11.3 | 0.00 | 0.00 | 0.00 | 67 | 1016.8 |
| 20260504043055 | 11 | 219 | 3.2 | 8.0 | 0.00 | 0.00 | 0.00 | 64 | 1016.9 |
| 20260504042544 | 11 | 173 | 1.6 | 12.9 | 0.00 | 0.00 | 0.00 | 65 | 1016.8 |
| 20260504042042 | 11 | 196 | 3.2 | 12.9 | 0.00 | 0.00 | 0.00 | 64 | 1016.9 |
| 20260504041557 | 11 | 202 | 3.2 | 11.3 | 0.00 | 0.00 | 0.00 | 64 | 1017.0 |
| 20260504041045 | 11 | 188 | 3.2 | 11.3 | 0.00 | 0.00 | 0.00 | 65 | 1017.0 |
| 20260504040545 | 11 | 197 | 3.2 | 11.3 | 0.00 | 0.00 | 0.00 | 64 | 1017.0 |
| 20260504040110 | 10 | 196 | 3.2 | 8.0 | 0.00 | 0.00 | 0.00 | 68 | 1017.1 |
| 20260504035550 | 11 | 187 | 1.6 | 11.3 | 0.00 | 0.00 | 0.00 | 67 | 1017.1 |
| 20260504035045 | 11 | 173 | 3.2 | 11.3 | 0.00 | 0.00 | 0.00 | 65 | 1017.2 |
| 20260504034607 | 11 | 229 | 1.6 | 9.7 | 0.00 | 0.00 | 0.00 | 66 | 1017.2 |
| 20260504034045 | 10 | 213 | 3.2 | 8.0 | 0.00 | 0.00 | 0.00 | 66 | 1017.1 |
| 20260504033545 | 11 | 220 | 1.6 | 9.7 | 0.00 | 0.00 | 0.00 | 65 | 1017.3 |
| 20260504033053 | 10 | 211 | 1.6 | 9.7 | 0.00 | 0.00 | 0.00 | 66 | 1017.3 |
| 20260504032542 | 10 | 238 | 1.6 | 9.7 | 0.00 | 0.00 | 0.00 | 66 | 1017.3 |
| 20260504032045 | 10 | 226 | 1.6 | 9.7 | 0.00 | 0.00 | 0.00 | 65 | 1017.3 |
| 20260504031550 | 10 | 207 | 0.0 | 9.7 | 0.00 | 0.00 | 0.00 | 67 | 1017.3 |
| 20260504031041 | 10 | 225 | 0.0 | 8.0 | 0.00 | 0.00 | 0.00 | 65 | 1017.2 |
| 20260504030544 | 10 | 0 | 1.6 | 6.4 | 0.00 | 0.00 | 0.00 | 68 | 1017.2 |
| 20260504030052 | 10 | 0 | 0.0 | 6.4 | 0.00 | 0.00 | 0.00 | 66 | 1017.2 |
| 20260504025545 | 10 | 0 | 0.0 | 3.2 | 0.00 | 0.00 | 0.00 | 67 | 1017.2 |
| 20260504025042 | 10 | 134 | 0.0 | 3.2 | 0.00 | 0.00 | 0.00 | 65 | 1017.1 |
| 20260504024558 | 10 | 0 | 0.0 | 3.2 | 0.00 | 0.00 | 0.00 | 68 | 1017.1 |
| 20260504024043 | 10 | 134 | 0.0 | 3.2 | 0.00 | 0.00 | 0.00 | 68 | 1017.1 |
| 20260504023541 | 10 | 0 | 0.0 | 3.2 | 0.00 | 0.00 | 0.00 | 68 | 1017.1 |
| 20260504023051 | 10 | 0 | 0.0 | 3.2 | 0.00 | 0.00 | 0.00 | 68 | 1017.0 |
| 20260504022542 | 10 | 126 | 0.0 | 3.2 | 0.00 | 0.00 | 0.00 | 67 | 1017.0 |
| 20260504022043 | 10 | 0 | 0.0 | 3.2 | 0.00 | 0.00 | 0.00 | 67 | 1016.8 |
| 20260504021550 | 10 | 0 | 0.0 | 3.2 | 0.00 | 0.00 | 0.00 | 67 | 1016.8 |
| 20260504021044 | 10 | 126 | 0.0 | 3.2 | 0.00 | 0.00 | 0.00 | 67 | 1016.8 |
| 20260504020543 | 10 | 126 | 0.0 | 1.6 | 0.00 | 0.00 | 0.00 | 66 | 1016.7 |
| 20260504020053 | 10 | 0 | 0.0 | 1.6 | 0.00 | 0.00 | 0.00 | 66 | 1016.7 |
| 20260504015544 | 10 | 0 | 0.0 | 4.8 | 0.00 | 0.00 | 0.00 | 65 | 1016.7 |
| 20260504015043 | 10 | 121 | 0.0 | 4.8 | 0.00 | 0.00 | 0.00 | 64 | 1016.6 |
| 20260504014550 | 10 | 0 | 0.0 | 4.8 | 0.00 | 0.00 | 0.00 | 63 | 1016.6 |
| 20260504014044 | 10 | 117 | 0.0 | 3.2 | 0.00 | 0.00 | 0.00 | 62 | 1016.6 |
| 20260504013542 | 10 | 117 | 0.0 | 3.2 | 0.00 | 0.00 | 0.00 | 63 | 1016.6 |
| 20260504013103 | 10 | 0 | 0.0 | 1.6 | 0.00 | 0.00 | 0.00 | 65 | 1016.4 |
| 20260504012543 | 11 | 0 | 0.0 | 1.6 | 0.00 | 0.00 | 0.00 | 64 | 1016.4 |
| 20260504012045 | 11 | 0 | 0.0 | 1.6 | 0.00 | 0.00 | 0.00 | 62 | 1016.4 |
| 20260504011555 | 11 | 0 | 0.0 | 1.6 | 0.00 | 0.00 | 0.00 | 61 | 1016.4 |
| 20260504011043 | 11 | 0 | 0.0 | 0.0 | 0.00 | 0.00 | 0.00 | 61 | 1016.4 |
| 20260504010543 | 11 | 0 | 0.0 | 0.0 | 0.00 | 0.00 | 0.00 | 59 | 1016.3 |
| 20260504010101 | 11 | 0 | 0.0 | 0.0 | 0.00 | 0.00 | 0.00 | 56 | 1016.3 |
| 20260504005542 | 11 | 0 | 0.0 | 0.0 | 0.00 | 0.00 | 0.00 | 56 | 1016.2 |
| 20260504005043 | 12 | 0 | 0.0 | 1.6 | 0.00 | 0.00 | 0.00 | 55 | 1016.1 |
| 20260504004606 | 12 | 0 | 0.0 | 1.6 | 0.00 | 0.00 | 0.00 | 54 | 1016.1 |
| 20260504004042 | 12 | 0 | 0.0 | 0.0 | 0.00 | 0.00 | 0.00 | 52 | 1016.2 |
| 20260504003543 | 12 | 0 | 0.0 | 0.0 | 0.00 | 0.00 | 0.00 | 51 | 1016.1 |
| 20260504003051 | 12 | 0 | 0.0 | 0.0 | 0.00 | 0.00 | 0.00 | 51 | 1016.1 |
| 20260504002544 | 12 | 0 | 0.0 | 1.6 | 0.00 | 0.00 | 0.00 | 51 | 1016.0 |
| 20260504002045 | 13 | 0 | 0.0 | 1.6 | 0.00 | 0.00 | 0.00 | 49 | 1015.9 |
| 20260504001549 | 13 | 0 | 0.0 | 0.0 | 0.00 | 0.00 | 0.00 | 48 | 1015.9 |
| 20260504001042 | 13 | 0 | 0.0 | 0.0 | 0.00 | 0.00 | 0.00 | 47 | 1015.8 |
| 20260504000543 | 13 | 0 | 0.0 | 0.0 | 0.00 | 0.00 | 0.00 | 46 | 1015.8 |
| 20260504000048 | 14 | 0 | 0.0 | 0.0 | 0.00 | 0.00 | 0.00 | 46 | 1015.8 |
| 20260503235542 | 14 | 0 | 0.0 | 0.0 | 0.00 | 0.00 | 0.00 | 45 | 1015.8 |
| 20260503235042 | 14 | 0 | 0.0 | 0.0 | 0.00 | 0.00 | 0.00 | 45 | 1015.8 |
| 20260503234552 | 15 | 0 | 0.0 | 1.6 | 0.00 | 0.00 | 0.00 | 45 | 1015.8 |
| 20260503234043 | 15 | 0 | 0.0 | 1.6 | 0.00 | 0.00 | 0.00 | 45 | 1015.9 |
| 20260503233543 | 15 | 0 | 0.0 | 1.6 | 0.00 | 0.00 | 0.00 | 44 | 1015.8 |
| 20260503233049 | 15 | 0 | 0.0 | 1.6 | 0.00 | 0.00 | 0.00 | 44 | 1015.7 |
| 20260503232543 | 16 | 0 | 0.0 | 1.6 | 0.00 | 0.00 | 0.00 | 42 | 1015.8 |
| 20260503232042 | 16 | 0 | 0.0 | 3.2 | 0.00 | 0.00 | 0.00 | 41 | 1015.8 |
| 20260503231549 | 16 | 0 | 0.0 | 4.8 | 0.00 | 0.00 | 0.00 | 42 | 1015.7 |
| 20260503231044 | 16 | 0 | 0.0 | 4.8 | 0.00 | 0.00 | 0.00 | 40 | 1015.9 |
| 20260503230545 | 16 | 0 | 0.0 | 4.8 | 0.00 | 0.00 | 0.00 | 40 | 1015.8 |
| 20260503230056 | 16 | 0 | 0.0 | 3.2 | 0.00 | 0.00 | 0.00 | 38 | 1015.8 |
| 20260503225542 | 17 | 188 | 0.0 | 4.8 | 0.00 | 0.00 | 0.00 | 40 | 1015.8 |
| 20260503225042 | 17 | 182 | 0.0 | 4.8 | 0.00 | 0.00 | 0.00 | 34 | 1015.9 |
| 20260503224549 | 17 | 0 | 0.0 | 6.4 | 0.00 | 0.00 | 0.00 | 36 | 1016.0 |
| 20260503224046 | 17 | 159 | 0.0 | 6.4 | 0.00 | 0.00 | 0.00 | 36 | 1016.0 |
| 20260503223543 | 17 | 159 | 1.6 | 8.0 | 0.00 | 0.00 | 0.00 | 35 | 1016.1 |
| 20260503223051 | 18 | 229 | 1.6 | 8.0 | 0.00 | 0.00 | 0.00 | 33 | 1016.0 |
| 20260503222542 | 18 | 202 | 0.0 | 11.3 | 0.00 | 0.00 | 0.00 | 35 | 1016.0 |
| 20260503222044 | 18 | 0 | 0.0 | 12.9 | 0.00 | 0.00 | 0.00 | 34 | 1016.1 |
| 20260503221550 | 18 | 201 | 1.6 | 12.9 | 0.00 | 0.00 | 0.00 | 31 | 1016.2 |
| 20260503221041 | 18 | 225 | 4.8 | 12.9 | 0.00 | 0.00 | 0.00 | 31 | 1016.2 |
| 20260503220541 | 18 | 177 | 0.0 | 6.4 | 0.00 | 0.00 | 0.00 | 30 | 1016.2 |
| 20260503220109 | 19 | 97 | 1.6 | 6.4 | 0.00 | 0.00 | 0.00 | 32 | 1016.2 |
| 20260503215544 | 19 | 247 | 1.6 | 6.4 | 0.00 | 0.00 | 0.00 | 29 | 1016.3 |
| 20260503215041 | 19 | 16 | 3.2 | 6.4 | 0.00 | 0.00 | 0.00 | 31 | 1016.4 |
| 20260503214550 | 20 | 0 | 1.6 | 11.3 | 0.00 | 0.00 | 0.00 | 29 | 1016.4 |
| 20260503214046 | 20 | 334 | 1.6 | 11.3 | 0.00 | 0.00 | 0.00 | 29 | 1016.4 |
| 20260503213542 | 19 | 0 | 1.6 | 8.0 | 0.00 | 0.00 | 0.00 | 30 | 1016.5 |
| 20260503213054 | 20 | 351 | 1.6 | 8.0 | 0.00 | 0.00 | 0.00 | 28 | 1016.6 |
| 20260503212542 | 19 | 0 | 3.2 | 12.9 | 0.00 | 0.00 | 0.00 | 30 | 1016.6 |
| 20260503212043 | 19 | 19 | 1.6 | 12.9 | 0.00 | 0.00 | 0.00 | 31 | 1016.6 |
| 20260503211552 | 19 | 5 | 3.2 | 9.7 | 0.00 | 0.00 | 0.00 | 26 | 1016.7 |